Pagrindinis puslapis
METAR-TAF:

METAR-TAF

Oro uostai :

Prince Rupert, Britų Kolumbija, Kanada

platuma: 54-18N, ilguma: 130-26W, Aukštis: 34 m

Dabartinis oras

Ataskaita buvo paskelbta 55 minutes, ne 00:00 UTC
Vėjas 6 kt iš Vakarų/Šiaurės Vakarų
Temperatūra 7°C
Drėgmė 70%
Slėgis 1023 hPa
Matomumas: 14.5 km
Giedras dangus

METAR: CYPR 100000Z AUTO 29006KT 9SM CLR 07/02 A3022 RMK SLP235

Laikas: 17:55 (00:55 UTC)

Prognozė

Ataskaita buvo paskelbta 17 minutes, ne 00:38 UTC
Prognozė galioja nuo 10 metu 01 UTC su 10 metu 13 UTC
Vėjas 5 kt iš Vakarų/Šiaurės Vakarų
Matomumas: 10 km
Giedras dangus
Tapsmas
nuo 10 metu 03 UTC su 10 metu 05 UTC
Vėjas 3 kt nuo kintamojo kryptimis

TAF: CYPR 100038Z 1001/1013 30005KT P6SM SKC BECMG 1003/1005 VRB03KT RMK FCST BASED ON AUTO OBS. NXT FCST BY 100700Z

Orai ataskaitas ir orų prognozės (METAR, TAF).

turimą stotys yra geltonos ir raudonos taškus žemėlapyje.

Perkelti pele per norėdami pamatyti stoties vardą.

Tada spustelėkite, norėdami matyti oro stebėjimo ir prognozės.

Norėdami pakeisti žemėlapį: spustelėkite ant žalios mygtukų su juodo kryžiaus žemyn,; žalią mygtuką su brūkšneliu, jei norite nutolinti; arba žalių rodyklių gretimoms žemėlapius.


METAR-TAF: